Time;durP1;ratioP1;P1;durP2;ratioP2;P2;SDS_P1;SDS_P2;PMS_P1;PMS_P2;Temp;Humidity;BMP_temperature;BMP_pressure;BME280_temperature;BME280_humidity;BME280_pressure;Samples;Min_cycle;Max_cycle;Signal;HPM_P1;HPM_P2
2022/09/29 00:00:27;;;;;;;7.93;7.43;;;8.90;1.00;;;;;;6268055;28;20233;-53
2022/09/29 00:03:30;;;;;;;8.23;7.63;;;8.90;1.00;;;;;;6284707;28;20241;-54
2022/09/29 00:06:35;;;;;;;8.60;7.80;;;8.80;1.00;;;;;;6292138;28;20685;-55
2022/09/29 00:09:38;;;;;;;8.30;7.80;;;8.80;1.00;;;;;;6296623;28;20237;-54
2022/09/29 00:12:41;;;;;;;8.70;8.10;;;8.70;1.00;;;;;;6256627;28;20241;-54
2022/09/29 00:15:44;;;;;;;9.40;8.70;;;9.00;1.00;;;;;;6285484;28;20245;-53
2022/09/29 00:18:47;;;;;;;8.57;7.90;;;8.60;1.00;;;;;;6262610;28;20234;-53
2022/09/29 00:21:51;;;;;;;8.07;7.53;;;8.60;1.00;;;;;;6289570;28;20229;-54
2022/09/29 00:24:54;;;;;;;7.20;6.80;;;8.60;1.00;;;;;;6279338;28;20230;-54
2022/09/29 00:27:57;;;;;;;7.63;7.10;;;8.50;1.00;;;;;;6259722;28;20234;-54
2022/09/29 00:31:01;;;;;;;9.07;8.37;;;8.60;1.00;;;;;;6276966;28;20229;-53
2022/09/29 00:34:04;;;;;;;8.47;7.87;;;8.50;1.00;;;;;;6285258;28;20377;-52
2022/09/29 00:37:08;;;;;;;7.93;7.47;;;8.40;1.00;;;;;;6304493;28;20236;-53
2022/09/29 00:40:11;;;;;;;8.70;8.10;;;8.40;1.00;;;;;;6309002;28;20238;-54
2022/09/29 00:43:20;;;;;;;9.20;8.60;;;8.40;1.00;;;;;;6302183;28;20241;-53
2022/09/29 00:46:29;;;;;;;10.10;9.30;;;8.40;1.00;;;;;;6284546;28;20241;-52
2022/09/29 00:49:39;;;;;;;7.93;7.43;;;8.40;1.00;;;;;;6285295;28;20265;-54
2022/09/29 00:52:47;;;;;;;8.70;8.00;;;8.40;1.00;;;;;;6282066;28;20584;-54
2022/09/29 00:55:53;;;;;;;8.00;7.50;;;8.30;1.00;;;;;;6284610;28;20237;-53
2022/09/29 00:59:00;;;;;;;8.73;7.93;;;8.40;1.00;;;;;;6281799;28;20241;-53
2022/09/29 01:02:04;;;;;;;7.00;6.60;;;8.40;1.00;;;;;;6277236;28;20241;-53
2022/09/29 01:05:12;;;;;;;8.33;7.80;;;8.30;1.00;;;;;;6290168;28;20229;-53
2022/09/29 01:08:22;;;;;;;7.60;7.20;;;8.40;1.00;;;;;;6281824;28;20233;-54
2022/09/29 01:11:25;;;;;;;7.20;6.80;;;8.20;1.00;;;;;;6258465;28;20733;-53
2022/09/29 01:14:30;;;;;;;9.00;8.30;;;8.20;1.00;;;;;;6259775;28;20709;-53
2022/09/29 01:17:33;;;;;;;8.53;7.90;;;8.20;1.00;;;;;;6258202;28;20237;-54
2022/09/29 01:20:43;;;;;;;7.70;7.27;;;8.10;1.00;;;;;;6275449;28;20717;-54
2022/09/29 01:24:15;;;;;;;7.70;7.20;;;8.10;1.00;;;;;;6282661;28;20741;-54
2022/09/29 01:27:49;;;;;;;7.13;6.70;;;8.10;1.00;;;;;;6258371;28;20650;-53
2022/09/29 01:31:08;;;;;;;7.13;6.73;;;8.10;1.00;;;;;;6254455;28;20241;-53
2022/09/29 01:34:19;;;;;;;6.63;6.23;;;8.30;1.00;;;;;;6285290;28;20241;-54
2022/09/29 01:37:31;;;;;;;6.70;6.40;;;8.00;1.00;;;;;;6303329;28;20314;-54
2022/09/29 01:40:44;;;;;;;10.20;9.30;;;8.40;1.00;;;;;;6257697;28;20244;-53
2022/09/29 01:43:53;;;;;;;10.07;9.23;;;8.10;1.00;;;;;;6250080;28;20400;-54
2022/09/29 01:47:03;;;;;;;10.17;9.37;;;8.20;1.00;;;;;;6256189;28;20733;-54
2022/09/29 01:50:10;;;;;;;9.83;9.10;;;8.30;1.00;;;;;;6265328;28;20237;-55
2022/09/29 01:53:18;;;;;;;10.20;9.37;;;8.10;1.00;;;;;;6280430;28;20237;-54
2022/09/29 01:56:26;;;;;;;10.37;9.53;;;7.90;1.00;;;;;;6283067;28;20236;-53
2022/09/29 01:59:36;;;;;;;11.13;10.23;;;8.00;1.00;;;;;;6266276;28;20702;-54
2022/09/29 02:02:46;;;;;;;11.30;10.40;;;7.90;1.00;;;;;;6263717;28;20245;-54
2022/09/29 02:05:52;;;;;;;10.67;9.87;;;8.10;1.00;;;;;;6299533;28;20519;-53
2022/09/29 02:08:58;;;;;;;9.33;8.53;;;8.20;1.00;;;;;;6272996;28;20233;-53
2022/09/29 02:12:03;;;;;;;11.10;10.17;;;8.10;1.00;;;;;;6258220;28;20245;-53
2022/09/29 02:15:09;;;;;;;11.40;10.30;;;8.30;1.00;;;;;;6259035;28;20242;-54
2022/09/29 02:18:18;;;;;;;10.70;9.90;;;8.20;1.00;;;;;;6256907;28;20226;-53
2022/09/29 02:21:22;;;;;;;10.93;9.93;;;8.10;1.00;;;;;;6282558;28;20350;-53
2022/09/29 02:24:25;;;;;;;9.37;8.67;;;8.10;1.00;;;;;;6257672;28;20238;-53
2022/09/29 02:27:29;;;;;;;9.60;8.90;;;8.20;1.00;;;;;;6258330;28;20389;-53
2022/09/29 02:30:33;;;;;;;10.63;9.73;;;8.20;1.00;;;;;;6262963;28;20743;-57
2022/09/29 02:33:37;;;;;;;10.67;9.87;;;8.40;1.00;;;;;;6271162;28;20241;-54
2022/09/29 02:36:49;;;;;;;10.43;9.60;;;8.20;1.00;;;;;;6287247;28;20241;-54
2022/09/29 02:40:02;;;;;;;10.67;9.80;;;8.20;1.00;;;;;;6281332;28;20603;-53
2022/09/29 02:43:29;;;;;;;10.20;9.30;;;8.30;1.00;;;;;;6273929;28;20241;-54
2022/09/29 02:46:46;;;;;;;10.53;9.73;;;8.30;1.00;;;;;;6288004;28;20236;-54
2022/09/29 02:50:21;;;;;;;10.60;9.70;;;8.30;1.00;;;;;;6291522;28;20225;-53
2022/09/29 02:53:36;;;;;;;10.90;9.77;;;8.30;1.00;;;;;;6277136;28;20242;-53
2022/09/29 02:56:49;;;;;;;10.77;9.90;;;8.30;1.00;;;;;;6277638;28;20237;-54
2022/09/29 03:00:04;;;;;;;11.40;10.33;;;8.30;1.00;;;;;;6285461;28;20318;-54
2022/09/29 03:03:07;;;;;;;11.37;10.37;;;8.30;1.00;;;;;;6286127;28;20242;-54
2022/09/29 03:06:13;;;;;;;12.87;11.77;;;8.30;1.00;;;;;;6290017;28;20238;-54
2022/09/29 03:09:16;;;;;;;12.00;11.00;;;8.20;1.00;;;;;;6270811;28;20234;-52
2022/09/29 03:12:19;;;;;;;12.67;11.20;;;8.30;1.00;;;;;;6286159;28;20233;-54
2022/09/29 03:15:22;;;;;;;12.70;11.60;;;8.50;1.00;;;;;;6278915;28;20261;-54
2022/09/29 03:18:26;;;;;;;11.93;10.87;;;8.30;1.00;;;;;;6311187;28;20667;-54
2022/09/29 03:21:30;;;;;;;11.83;10.73;;;8.30;1.00;;;;;;6293611;28;20237;-54
2022/09/29 03:24:33;;;;;;;13.00;11.70;;;8.30;1.00;;;;;;6278740;28;20229;-54
2022/09/29 03:27:37;;;;;;;11.00;10.10;;;8.30;1.00;;;;;;6286050;28;20229;-53
2022/09/29 03:30:40;;;;;;;11.37;10.40;;;8.30;1.00;;;;;;6284268;28;20443;-54
2022/09/29 03:33:43;;;;;;;13.67;12.37;;;8.30;1.00;;;;;;6261296;28;20706;-54
2022/09/29 03:36:47;;;;;;;13.20;11.90;;;8.40;1.00;;;;;;6278871;28;20225;-54
2022/09/29 03:39:50;;;;;;;13.40;12.20;;;8.40;1.00;;;;;;6281563;28;20743;-54
2022/09/29 03:42:53;;;;;;;13.93;12.70;;;8.40;1.00;;;;;;6290012;28;20229;-56
2022/09/29 03:45:56;;;;;;;13.20;12.10;;;8.40;1.00;;;;;;6294217;28;20230;-53
2022/09/29 03:48:59;;;;;;;13.87;12.57;;;8.40;1.00;;;;;;6291747;28;20689;-54
2022/09/29 03:52:04;;;;;;;12.73;11.63;;;8.40;1.00;;;;;;6283332;28;20473;-54
2022/09/29 03:55:07;;;;;;;15.27;13.20;;;8.40;1.00;;;;;;6289411;28;20264;-53
2022/09/29 03:58:10;;;;;;;12.93;11.77;;;8.50;1.00;;;;;;6288846;28;20599;-54
2022/09/29 04:01:13;;;;;;;13.80;12.60;;;8.50;1.00;;;;;;6288088;28;20709;-54
2022/09/29 04:04:16;;;;;;;12.57;11.47;;;8.50;1.00;;;;;;6291030;28;20263;-53
2022/09/29 04:07:20;;;;;;;11.77;10.77;;;8.60;1.00;;;;;;6291085;28;20244;-54
2022/09/29 04:10:23;;;;;;;14.50;13.10;;;8.60;1.00;;;;;;6289896;28;20402;-54
2022/09/29 04:13:26;;;;;;;14.57;13.07;;;8.50;1.00;;;;;;6301110;28;20725;-54
2022/09/29 04:16:29;;;;;;;13.20;11.97;;;8.50;1.00;;;;;;6293341;28;20729;-54
2022/09/29 04:19:32;;;;;;;12.43;11.37;;;8.50;1.00;;;;;;6296822;28;20233;-54
2022/09/29 04:22:36;;;;;;;13.67;12.27;;;8.60;1.00;;;;;;6301020;28;20236;-57
2022/09/29 04:25:39;;;;;;;15.13;13.50;;;8.60;1.00;;;;;;6287779;28;20614;-53
2022/09/29 04:28:42;;;;;;;14.87;13.47;;;8.60;1.00;;;;;;6296398;28;20232;-54
2022/09/29 04:31:45;;;;;;;14.20;12.80;;;8.70;1.00;;;;;;6287402;28;20241;-55
2022/09/29 04:34:48;;;;;;;14.53;13.13;;;8.70;1.00;;;;;;6286047;28;20656;-55
2022/09/29 04:37:58;;;;;;;12.60;11.50;;;8.70;1.00;;;;;;6286649;28;20393;-53
2022/09/29 04:41:00;;;;;;;12.40;11.30;;;8.70;1.00;;;;;;6282889;28;20238;-55
2022/09/29 04:44:04;;;;;;;13.63;12.37;;;8.70;1.00;;;;;;6285137;28;20225;-53
2022/09/29 04:47:07;;;;;;;14.40;13.10;;;8.70;1.00;;;;;;6286231;28;20780;-52
2022/09/29 04:50:10;;;;;;;15.13;13.70;;;8.70;1.00;;;;;;6281672;28;20820;-53
2022/09/29 04:53:14;;;;;;;14.70;13.40;;;8.70;1.00;;;;;;6277880;28;20233;-54
2022/09/29 04:56:17;;;;;;;14.50;13.10;;;8.70;1.00;;;;;;6284100;28;20252;-54
2022/09/29 04:59:20;;;;;;;13.53;12.27;;;8.70;1.00;;;;;;6278615;28;20236;-52
2022/09/29 05:02:23;;;;;;;15.20;13.80;;;8.70;1.00;;;;;;6283892;28;20233;-54
2022/09/29 05:05:26;;;;;;;15.83;14.23;;;8.70;1.00;;;;;;6291080;28;20598;-52
2022/09/29 05:08:30;;;;;;;13.67;12.37;;;8.70;1.00;;;;;;6282998;28;20241;-54
2022/09/29 05:11:33;;;;;;;14.03;12.67;;;8.70;1.00;;;;;;6286243;28;20757;-53
2022/09/29 05:14:36;;;;;;;14.40;13.00;;;8.70;1.00;;;;;;6289161;28;20748;-54
2022/09/29 05:17:39;;;;;;;12.93;11.73;;;8.70;1.00;;;;;;6279226;28;20633;-54
2022/09/29 05:20:42;;;;;;;14.67;13.23;;;8.80;1.00;;;;;;6297732;28;20250;-54
2022/09/29 05:24:06;;;;;;;14.73;13.33;;;8.80;1.00;;;;;;6280026;28;20800;-53
2022/09/29 05:27:09;;;;;;;14.97;13.47;;;8.80;1.00;;;;;;6276018;28;20365;-54
2022/09/29 05:30:12;;;;;;;14.80;13.30;;;8.80;1.00;;;;;;6278502;28;20240;-54
2022/09/29 05:33:15;;;;;;;14.77;13.10;;;8.90;1.00;;;;;;6274889;28;20282;-52
2022/09/29 05:36:18;;;;;;;13.47;12.27;;;8.90;1.00;;;;;;6293622;28;20631;-53
2022/09/29 05:39:22;;;;;;;15.40;13.40;;;8.90;1.00;;;;;;6289925;28;20235;-53
2022/09/29 05:42:26;;;;;;;14.83;13.33;;;9.00;1.00;;;;;;6285238;28;20236;-54
2022/09/29 05:45:29;;;;;;;14.20;12.73;;;9.00;1.00;;;;;;6277807;28;20240;-53
2022/09/29 05:48:32;;;;;;;15.23;13.63;;;9.00;1.00;;;;;;6289443;28;20233;-53
2022/09/29 05:51:35;;;;;;;13.57;12.23;;;9.10;1.00;;;;;;6286627;28;20245;-54
2022/09/29 05:54:39;;;;;;;14.87;13.37;;;9.10;1.00;;;;;;6291375;28;20229;-55
2022/09/29 05:57:42;;;;;;;15.83;14.20;;;9.20;1.00;;;;;;6287844;28;20244;-53
2022/09/29 06:00:45;;;;;;;13.83;12.53;;;9.20;1.00;;;;;;6285315;28;20621;-59
2022/09/29 06:03:50;;;;;;;15.37;13.77;;;9.20;1.00;;;;;;6302141;28;20229;-53
2022/09/29 06:06:54;;;;;;;17.23;13.73;;;9.20;1.00;;;;;;6294769;28;20232;-55
2022/09/29 06:09:58;;;;;;;16.83;15.00;;;9.30;1.00;;;;;;6292490;28;20575;-54
2022/09/29 06:13:02;;;;;;;18.20;16.37;;;9.20;1.00;;;;;;6286011;28;20236;-55
2022/09/29 06:16:05;;;;;;;16.17;14.40;;;9.20;1.00;;;;;;6294675;28;20233;-53
2022/09/29 06:19:08;;;;;;;15.13;13.53;;;9.20;1.00;;;;;;6288173;28;20252;-54
2022/09/29 06:22:11;;;;;;;16.03;14.50;;;9.30;1.00;;;;;;6296181;28;20229;-54
2022/09/29 06:25:15;;;;;;;15.67;14.17;;;9.30;1.00;;;;;;6283025;28;20713;-53
2022/09/29 06:28:18;;;;;;;15.80;14.00;;;9.30;1.00;;;;;;6290515;28;20725;-53
2022/09/29 06:31:23;;;;;;;15.57;13.40;;;9.30;1.00;;;;;;6285584;28;20237;-54
2022/09/29 06:34:26;;;;;;;15.43;13.87;;;9.30;1.00;;;;;;6286646;28;20232;-53
2022/09/29 06:37:34;;;;;;;17.03;14.27;;;9.30;1.00;;;;;;6288163;28;20469;-54
2022/09/29 06:40:38;;;;;;;15.20;13.60;;;9.40;1.00;;;;;;6288111;28;20722;-52
2022/09/29 06:43:41;;;;;;;14.80;13.23;;;9.40;1.00;;;;;;6298901;28;20233;-53
2022/09/29 06:46:44;;;;;;;15.33;13.77;;;9.50;1.00;;;;;;6284695;28;20615;-53
2022/09/29 06:49:47;;;;;;;15.37;13.63;;;9.50;1.00;;;;;;6293163;28;20406;-54
2022/09/29 06:53:10;;;;;;;16.20;14.33;;;9.50;1.00;;;;;;6285327;28;20230;-53
2022/09/29 06:56:15;;;;;;;17.33;14.70;;;9.60;1.00;;;;;;6294130;28;20229;-54
2022/09/29 06:59:17;;;;;;;17.63;15.73;;;9.60;1.00;;;;;;6287068;28;20256;-54
2022/09/29 07:02:21;;;;;;;18.07;15.70;;;9.50;1.00;;;;;;6285117;28;20252;-52
2022/09/29 07:05:24;;;;;;;17.27;15.47;;;9.40;1.00;;;;;;6293460;28;20233;-52
2022/09/29 07:08:27;;;;;;;19.07;14.67;;;9.40;1.00;;;;;;6292408;28;20241;-55
2022/09/29 07:11:31;;;;;;;18.23;16.17;;;9.40;1.00;;;;;;6295756;28;20475;-53
2022/09/29 07:14:34;;;;;;;17.77;15.97;;;9.40;1.00;;;;;;6292132;28;20229;-53
2022/09/29 07:17:37;;;;;;;16.90;14.83;;;9.40;1.00;;;;;;6287713;28;20263;-54
2022/09/29 07:20:40;;;;;;;20.77;16.43;;;9.50;1.00;;;;;;6290021;28;20819;-54
2022/09/29 07:23:44;;;;;;;17.77;15.87;;;9.50;1.00;;;;;;6280833;28;20608;-55
2022/09/29 07:26:48;;;;;;;19.23;16.33;;;9.50;1.00;;;;;;6276048;28;20877;-51
2022/09/29 07:29:51;;;;;;;21.63;16.63;;;9.60;1.00;;;;;;6287868;28;20229;-54
2022/09/29 07:33:05;;;;;;;18.90;16.90;;;9.50;1.00;;;;;;6274515;28;20684;-53
2022/09/29 07:36:08;;;;;;;19.67;16.27;;;9.50;1.00;;;;;;6275177;28;20275;-53
2022/09/29 07:39:11;;;;;;;22.93;17.10;;;9.50;1.00;;;;;;6274332;28;20242;-53
2022/09/29 07:42:17;;;;;;;19.57;17.40;;;9.60;1.00;;;;;;6281931;28;20317;-54
2022/09/29 07:45:20;;;;;;;19.30;17.30;;;9.60;1.00;;;;;;6272645;28;20295;-53
2022/09/29 07:48:23;;;;;;;22.80;17.80;;;9.60;1.00;;;;;;6279050;28;20237;-52
2022/09/29 07:51:33;;;;;;;21.37;18.13;;;9.70;1.00;;;;;;6281306;28;20463;-53
2022/09/29 07:54:35;;;;;;;19.27;17.13;;;9.70;1.00;;;;;;6293391;28;20304;-53
2022/09/29 07:57:40;;;;;;;23.17;18.30;;;9.80;1.00;;;;;;6291729;28;20431;-55
2022/09/29 08:00:42;;;;;;;20.27;18.17;;;9.80;1.00;;;;;;6291258;28;20507;-54
2022/09/29 08:03:50;;;;;;;21.87;17.13;;;9.90;1.00;;;;;;6279257;28;20240;-54
2022/09/29 08:06:53;;;;;;;19.23;17.20;;;10.00;1.00;;;;;;6291518;28;20236;-53
2022/09/29 08:09:56;;;;;;;23.57;18.83;;;10.10;1.00;;;;;;6293628;28;20714;-55
2022/09/29 08:13:13;;;;;;;24.23;18.67;;;10.10;1.00;;;;;;6288930;28;20718;-54
2022/09/29 08:16:16;;;;;;;20.43;18.27;;;10.10;1.00;;;;;;6290725;28;20233;-54
2022/09/29 08:19:19;;;;;;;21.07;18.97;;;10.20;1.00;;;;;;6286871;28;20636;-55
2022/09/29 08:22:22;;;;;;;20.20;18.10;;;10.30;1.00;;;;;;6283522;28;20247;-54
2022/09/29 08:25:25;;;;;;;19.97;17.57;;;10.30;1.00;;;;;;6284044;28;20232;-57
2022/09/29 08:28:30;;;;;;;19.67;17.57;;;10.40;1.00;;;;;;6283804;28;20244;-54
2022/09/29 08:31:34;;;;;;;18.40;16.40;;;10.50;1.00;;;;;;6286518;28;20230;-54
2022/09/29 08:34:38;;;;;;;19.23;17.23;;;10.60;1.00;;;;;;6282434;28;20233;-52
2022/09/29 08:37:40;;;;;;;19.20;17.10;;;10.70;1.00;;;;;;6284650;28;20507;-54
2022/09/29 08:40:43;;;;;;;18.07;16.10;;;10.80;1.00;;;;;;6283208;28;20241;-54
2022/09/29 08:43:51;;;;;;;18.77;16.37;;;11.00;1.00;;;;;;6285393;28;20588;-53
2022/09/29 08:46:58;;;;;;;17.73;15.93;;;11.10;1.00;;;;;;6288094;28;20456;-54
2022/09/29 08:50:20;;;;;;;19.10;15.93;;;11.30;1.00;;;;;;6287671;28;20247;-56
2022/09/29 08:53:25;;;;;;;17.10;15.40;;;11.30;1.00;;;;;;6298301;28;20590;-54
2022/09/29 08:56:31;;;;;;;18.43;14.50;;;11.40;1.00;;;;;;6280552;28;20252;-54
2022/09/29 08:59:36;;;;;;;18.53;16.07;;;11.50;1.00;;;;;;6282721;28;20241;-54
2022/09/29 09:03:08;;;;;;;18.10;15.47;;;11.50;1.00;;;;;;6289324;28;20311;-52
2022/09/29 09:06:19;;;;;;;17.03;15.23;;;11.60;1.00;;;;;;6284321;28;20503;-54
2022/09/29 09:09:43;;;;;;;16.50;14.90;;;11.60;1.00;;;;;;6286868;28;20240;-53
2022/09/29 09:13:09;;;;;;;17.50;15.67;;;11.60;1.00;;;;;;6285186;28;20683;-53
2022/09/29 09:16:25;;;;;;;17.03;15.13;;;11.80;1.00;;;;;;6286723;28;20608;-53
2022/09/29 09:19:45;;;;;;;18.43;16.33;;;12.00;1.00;;;;;;6293548;28;20251;-53
2022/09/29 09:22:56;;;;;;;17.13;15.33;;;12.20;1.00;;;;;;6283868;28;20367;-53
2022/09/29 09:26:02;;;;;;;18.03;15.17;;;12.20;1.00;;;;;;6289770;28;20701;-53
2022/09/29 09:29:11;;;;;;;17.73;15.73;;;12.40;1.00;;;;;;6289345;28;20229;-57
2022/09/29 09:32:20;;;;;;;17.20;15.50;;;12.40;1.00;;;;;;6277916;28;20245;-52
2022/09/29 09:35:32;;;;;;;16.67;15.07;;;12.50;1.00;;;;;;6281063;28;20903;-53
2022/09/29 09:38:44;;;;;;;16.17;14.57;;;12.50;1.00;;;;;;6278490;28;20241;-53
2022/09/29 09:41:51;;;;;;;16.03;14.43;;;12.60;1.00;;;;;;6288627;28;20244;-54
2022/09/29 09:44:59;;;;;;;15.70;13.53;;;12.70;1.00;;;;;;6283038;28;20237;-54
2022/09/29 09:48:10;;;;;;;14.63;13.33;;;12.70;1.00;;;;;;6292380;28;20292;-53
2022/09/29 09:51:33;;;;;;;15.87;14.37;;;12.80;1.00;;;;;;6280831;28;20737;-52
2022/09/29 09:54:40;;;;;;;15.10;13.67;;;12.90;1.00;;;;;;6279437;28;20234;-53
2022/09/29 09:58:06;;;;;;;14.73;13.33;;;13.10;1.00;;;;;;6287800;28;20240;-52
2022/09/29 10:01:10;;;;;;;15.50;14.07;;;13.20;1.00;;;;;;6289420;28;20229;-52
2022/09/29 10:04:15;;;;;;;17.10;14.23;;;13.30;1.00;;;;;;6282870;28;20233;-56
2022/09/29 10:07:19;;;;;;;15.83;14.27;;;13.50;1.00;;;;;;6282727;28;20229;-60
2022/09/29 10:10:26;;;;;;;15.30;13.03;;;13.70;1.00;;;;;;6290552;28;20225;-54
2022/09/29 10:13:31;;;;;;;13.30;12.20;;;13.80;1.00;;;;;;6294455;28;20240;-54
2022/09/29 10:16:40;;;;;;;30.73;12.87;;;13.90;1.00;;;;;;6286233;28;20759;-54
2022/09/29 10:19:56;;;;;;;13.50;12.33;;;13.70;1.00;;;;;;6285236;28;20297;-54
2022/09/29 10:23:24;;;;;;;12.90;11.70;;;13.60;1.00;;;;;;6289098;28;20228;-54
2022/09/29 10:26:32;;;;;;;13.17;10.10;;;13.60;1.00;;;;;;6288630;28;20220;-54
2022/09/29 10:29:39;;;;;;;11.57;10.57;;;13.70;1.00;;;;;;6291897;28;20237;-53
2022/09/29 10:32:44;;;;;;;11.17;10.13;;;13.90;1.00;;;;;;6284009;28;20396;-55
2022/09/29 10:35:51;;;;;;;11.63;10.67;;;14.00;1.00;;;;;;6276520;28;20248;-53
2022/09/29 10:38:55;;;;;;;11.03;9.93;;;14.10;1.00;;;;;;6284072;28;20239;-54
2022/09/29 10:42:16;;;;;;;10.90;10.00;;;14.10;1.00;;;;;;6280201;28;20240;-54
2022/09/29 10:45:21;;;;;;;10.03;9.23;;;14.10;1.00;;;;;;6285307;28;20584;-52
2022/09/29 10:48:26;;;;;;;10.90;9.90;;;14.10;1.00;;;;;;6288300;28;20228;-54
2022/09/29 10:51:30;;;;;;;10.67;9.87;;;14.10;1.00;;;;;;6282393;28;20245;-54
2022/09/29 10:54:36;;;;;;;9.90;9.17;;;14.20;1.00;;;;;;6279151;28;20229;-52
2022/09/29 10:57:39;;;;;;;11.00;10.00;;;14.30;1.00;;;;;;6275080;28;20252;-52
2022/09/29 11:00:42;;;;;;;11.47;9.63;;;14.10;1.00;;;;;;6295899;28;20237;-52
2022/09/29 11:03:50;;;;;;;11.03;10.20;;;14.10;1.00;;;;;;6291350;28;20232;-54
2022/09/29 11:06:54;;;;;;;10.13;9.33;;;14.10;1.00;;;;;;6280247;28;20784;-54
2022/09/29 11:09:57;;;;;;;10.40;9.60;;;14.30;1.00;;;;;;6296641;28;20613;-53
2022/09/29 11:13:34;;;;;;;9.67;8.90;;;14.30;1.00;;;;;;6289696;28;20581;-53
2022/09/29 11:16:39;;;;;;;10.43;9.43;;;14.40;1.00;;;;;;6298328;28;20229;-52
2022/09/29 11:19:42;;;;;;;9.37;8.67;;;14.50;1.00;;;;;;6296810;28;20252;-54
2022/09/29 11:23:11;;;;;;;8.93;8.23;;;14.60;1.00;;;;;;6278881;28;20340;-52
2022/09/29 11:26:24;;;;;;;9.17;8.50;;;14.50;1.00;;;;;;6282730;28;20315;-53
2022/09/29 11:29:42;;;;;;;9.30;8.60;;;14.50;1.00;;;;;;6295494;28;20229;-54
2022/09/29 11:33:03;;;;;;;8.30;7.70;;;14.30;1.00;;;;;;6274911;28;20242;-54
2022/09/29 11:36:18;;;;;;;8.63;7.73;;;14.10;1.00;;;;;;6284363;28;20225;-52
2022/09/29 11:39:36;;;;;;;8.03;7.53;;;14.10;1.00;;;;;;6292719;28;20310;-52
2022/09/29 11:42:55;;;;;;;7.93;7.47;;;14.10;1.00;;;;;;6284946;28;20637;-54
2022/09/29 11:46:11;;;;;;;37.47;27.33;;;14.10;1.00;;;;;;6292640;28;20599;-53
2022/09/29 11:49:49;;;;;;;38.10;23.60;;;14.10;1.00;;;;;;6288383;28;20238;-53
2022/09/29 11:53:24;;;;;;;109.83;54.43;;;14.20;1.00;;;;;;6280348;28;20229;-54
2022/09/29 11:56:37;;;;;;;53.90;28.43;;;14.20;1.00;;;;;;6284974;28;20691;-53
2022/09/29 11:59:57;;;;;;;29.60;19.93;;;14.10;1.00;;;;;;6278614;28;20248;-53
2022/09/29 12:03:23;;;;;;;51.00;34.37;;;13.90;1.00;;;;;;6284846;28;20267;-53
2022/09/29 12:06:51;;;;;;;19.07;16.70;;;13.90;1.00;;;;;;6291955;28;20233;-55
2022/09/29 12:10:18;;;;;;;19.73;17.90;;;13.80;1.00;;;;;;6284789;28;20663;-53
2022/09/29 12:13:41;;;;;;;17.57;16.13;;;13.70;1.00;;;;;;6279250;28;20546;-53
2022/09/29 12:16:52;;;;;;;8.50;7.90;;;13.70;1.00;;;;;;6287035;28;20236;-53
2022/09/29 12:20:02;;;;;;;7.20;6.70;;;13.70;1.00;;;;;;6290728;28;20225;-54
2022/09/29 12:23:12;;;;;;;6.50;6.10;;;13.60;1.00;;;;;;6283849;28;20732;-54
2022/09/29 12:26:19;;;;;;;5.90;5.70;;;13.70;1.00;;;;;;6283126;28;20233;-52
2022/09/29 12:29:33;;;;;;;6.40;6.10;;;13.80;1.00;;;;;;6283432;28;20259;-53
2022/09/29 12:32:41;;;;;;;6.90;6.50;;;13.90;1.00;;;;;;6285613;28;20277;-54
2022/09/29 12:35:50;;;;;;;6.33;5.93;;;14.00;1.00;;;;;;6286440;28;20256;-54
2022/09/29 12:39:00;;;;;;;6.27;5.97;;;14.10;1.00;;;;;;6280052;28;20232;-52
2022/09/29 12:42:23;;;;;;;6.23;5.93;;;14.30;1.00;;;;;;6288272;28;20236;-53
2022/09/29 12:45:35;;;;;;;5.93;5.67;;;14.40;1.00;;;;;;6269533;28;20228;-54
2022/09/29 12:48:50;;;;;;;6.10;5.73;;;14.70;1.00;;;;;;6288076;28;20487;-53
2022/09/29 12:51:53;;;;;;;7.00;6.40;;;14.80;1.00;;;;;;6295397;28;20245;-55
2022/09/29 12:55:00;;;;;;;8.03;7.33;;;14.80;1.00;;;;;;6290769;28;20740;-53
2022/09/29 12:58:11;;;;;;;7.40;6.77;;;14.80;1.00;;;;;;6271345;28;20242;-54
2022/09/29 13:01:22;;;;;;;6.30;5.90;;;14.80;1.00;;;;;;6291586;28;20321;-54
2022/09/29 13:04:42;;;;;;;6.60;6.13;;;14.80;1.00;;;;;;6290780;28;20639;-54
2022/09/29 13:08:03;;;;;;;5.83;5.43;;;15.20;1.00;;;;;;6286469;28;20452;-52
2022/09/29 13:11:39;;;;;;;5.47;5.17;;;15.60;1.00;;;;;;6288902;28;20240;-52
2022/09/29 13:15:08;;;;;;;5.40;5.17;;;16.00;1.00;;;;;;6284111;28;20233;-54
2022/09/29 13:18:32;;;;;;;4.77;4.47;;;16.40;1.00;;;;;;6276928;28;20260;-52
2022/09/29 13:21:42;;;;;;;4.50;4.33;;;16.30;1.00;;;;;;6282812;28;20252;-54
2022/09/29 13:24:56;;;;;;;5.30;4.80;;;16.20;1.00;;;;;;6286680;28;20713;-53
2022/09/29 13:28:00;;;;;;;4.60;4.30;;;15.90;1.00;;;;;;6281945;28;20871;-53
2022/09/29 13:31:07;;;;;;;4.97;4.77;;;15.70;1.00;;;;;;6289062;28;20244;-55
2022/09/29 13:34:22;;;;;;;4.70;4.47;;;15.60;1.00;;;;;;6273977;28;20236;-54
2022/09/29 13:37:28;;;;;;;4.40;4.30;;;15.50;1.00;;;;;;6285833;28;20233;-53
2022/09/29 13:40:31;;;;;;;4.83;4.50;;;15.30;1.00;;;;;;6284282;28;20244;-54
2022/09/29 13:43:39;;;;;;;4.40;4.20;;;15.10;1.00;;;;;;6282476;28;20486;-54
2022/09/29 13:46:42;;;;;;;4.20;4.00;;;15.00;1.00;;;;;;6279174;28;20608;-54
2022/09/29 13:49:46;;;;;;;4.10;3.90;;;15.00;1.00;;;;;;6292316;28;20238;-54
2022/09/29 13:52:49;;;;;;;3.97;3.87;;;15.00;1.00;;;;;;6287813;28;20248;-53
2022/09/29 13:55:54;;;;;;;4.53;4.27;;;15.00;1.00;;;;;;6300909;28;20241;-54
2022/09/29 13:59:00;;;;;;;4.60;4.40;;;15.10;1.00;;;;;;6290971;28;20232;-54
2022/09/29 14:02:20;;;;;;;4.80;4.60;;;15.00;1.00;;;;;;6286434;28;20612;-54
2022/09/29 14:05:55;;;;;;;4.80;4.60;;;15.00;1.00;;;;;;6293557;28;20233;-52
2022/09/29 14:09:04;;;;;;;4.17;3.97;;;15.00;1.00;;;;;;6180192;28;20232;-53
2022/09/29 14:12:10;;;;;;;4.50;4.30;;;14.90;1.00;;;;;;6286360;28;20244;-53
2022/09/29 14:15:18;;;;;;;4.47;4.17;;;14.70;1.00;;;;;;6290081;28;20381;-53
2022/09/29 14:18:31;;;;;;;4.60;4.43;;;14.60;1.00;;;;;;6279641;28;20241;-52
2022/09/29 14:21:52;;;;;;;3.60;3.50;;;14.50;1.00;;;;;;6279776;28;20234;-52
2022/09/29 14:24:55;;;;;;;3.87;3.67;;;14.40;1.00;;;;;;6282392;28;20245;-52
2022/09/29 14:28:02;;;;;;;4.10;3.90;;;14.30;1.00;;;;;;6290265;28;20327;-54
2022/09/29 14:31:19;;;;;;;3.70;3.50;;;14.30;1.00;;;;;;6286200;28;20617;-53
2022/09/29 14:34:24;;;;;;;3.70;3.60;;;14.30;1.00;;;;;;6283029;28;20603;-53
2022/09/29 14:37:30;;;;;;;4.00;3.80;;;14.30;1.00;;;;;;6284802;28;20244;-52
2022/09/29 14:40:33;;;;;;;3.00;3.00;;;14.30;1.00;;;;;;6281099;28;20649;-53
2022/09/29 14:43:39;;;;;;;2.93;2.93;;;14.30;1.00;;;;;;6293449;28;20255;-54
2022/09/29 14:54:09;;;;;;;3.23;3.13;;;14.60;1.00;;;;;;6280876;28;20230;-54
2022/09/29 14:57:34;;;;;;;3.37;3.10;;;14.70;1.00;;;;;;6290308;28;20616;-53
2022/09/29 15:00:56;;;;;;;4.23;3.37;;;14.80;1.00;;;;;;6284163;28;20241;-53
2022/09/29 15:04:06;;;;;;;3.20;3.10;;;14.80;1.00;;;;;;6301312;28;20237;-55
2022/09/29 15:07:12;;;;;;;4.47;3.33;;;14.90;1.00;;;;;;6293360;28;20222;-53
2022/09/29 15:10:26;;;;;;;4.03;3.13;;;14.80;1.00;;;;;;6293037;28;20237;-54
2022/09/29 15:13:30;;;;;;;3.47;3.27;;;14.80;1.00;;;;;;6278941;28;20248;-54
2022/09/29 15:16:43;;;;;;;3.40;3.20;;;14.70;1.00;;;;;;6286841;28;20237;-53
2022/09/29 15:19:53;;;;;;;4.33;4.13;;;14.70;1.00;;;;;;6300702;28;20253;-52
2022/09/29 15:23:24;;;;;;;4.00;3.80;;;14.70;1.00;;;;;;6298151;28;20315;-52
2022/09/29 15:26:32;;;;;;;3.80;3.70;;;14.60;1.00;;;;;;6286233;28;20237;-53
2022/09/29 15:29:35;;;;;;;3.67;3.57;;;14.50;1.00;;;;;;6294008;28;20263;-53
2022/09/29 15:32:38;;;;;;;4.63;3.77;;;14.50;1.00;;;;;;6285569;28;20281;-54
2022/09/29 15:35:44;;;;;;;3.60;3.50;;;14.40;1.00;;;;;;6291232;28;20241;-54
2022/09/29 15:38:51;;;;;;;4.10;3.90;;;14.30;1.00;;;;;;6284787;28;20702;-52
2022/09/29 15:42:00;;;;;;;4.20;4.00;;;14.20;1.00;;;;;;6284845;28;20248;-54
2022/09/29 15:45:12;;;;;;;4.10;3.90;;;14.10;1.00;;;;;;6281086;28;20227;-54
2022/09/29 15:48:15;;;;;;;3.50;3.40;;;14.00;1.00;;;;;;6287469;28;20268;-52
2022/09/29 15:51:18;;;;;;;3.63;3.43;;;14.00;1.00;;;;;;6279804;28;20298;-54
2022/09/29 15:54:22;;;;;;;3.63;3.53;;;13.90;1.00;;;;;;6286483;28;20722;-54
2022/09/29 15:57:45;;;;;;;4.10;4.00;;;13.90;1.00;;;;;;6287289;28;20614;-54
2022/09/29 16:00:48;;;;;;;4.40;4.30;;;13.90;1.00;;;;;;6264078;28;20270;-54
2022/09/29 16:03:56;;;;;;;4.13;4.00;;;13.80;1.00;;;;;;6276427;28;20600;-54
2022/09/29 16:06:59;;;;;;;4.97;4.60;;;13.70;1.00;;;;;;6274340;28;20256;-53
2022/09/29 16:10:08;;;;;;;5.43;4.93;;;13.60;1.00;;;;;;6290476;28;20236;-56
2022/09/29 16:13:20;;;;;;;5.00;4.60;;;13.50;1.00;;;;;;6281894;28;20344;-52
2022/09/29 16:16:31;;;;;;;4.20;4.00;;;13.40;1.00;;;;;;6284240;28;20714;-54
2022/09/29 16:19:35;;;;;;;4.67;4.47;;;13.20;1.00;;;;;;6282983;28;20617;-54
2022/09/29 16:22:38;;;;;;;4.17;4.07;;;13.10;1.00;;;;;;6279483;28;20360;-51
2022/09/29 16:25:41;;;;;;;4.33;4.13;;;13.00;1.00;;;;;;6281383;28;20229;-54
2022/09/29 16:29:22;;;;;;;4.80;4.60;;;12.90;1.00;;;;;;6279329;28;20241;-53
2022/09/29 16:32:40;;;;;;;4.17;4.07;;;12.80;1.00;;;;;;6286337;28;20283;-54